sensor_id;sensor_type;location;lat;lon;timestamp;noise_LAeq;noise_LA_min;noise_LA_max;noise_LA01;noise_LA95
47109;Laerm;32856;51.422;6.794;2022-10-31T00:00:23;48.28;43.24;53.34;;
47109;Laerm;32856;51.422;6.794;2022-10-31T00:02:51;45.13;41.82;48.49;;
47109;Laerm;32856;51.422;6.794;2022-10-31T00:05:20;52.07;42.82;68.43;;
47109;Laerm;32856;51.422;6.794;2022-10-31T00:07:51;55.32;41.48;73.66;;
47109;Laerm;32856;51.422;6.794;2022-10-31T00:10:18;53.46;42.98;71.39;;
47109;Laerm;32856;51.422;6.794;2022-10-31T00:12:46;46.43;43.09;51.51;;
47109;Laerm;32856;51.422;6.794;2022-10-31T00:15:13;45.24;40.71;62.37;;
47109;Laerm;32856;51.422;6.794;2022-10-31T00:17:41;46.00;42.16;49.75;;
47109;Laerm;32856;51.422;6.794;2022-10-31T00:20:08;47.17;43.09;53.19;;
47109;Laerm;32856;51.422;6.794;2022-10-31T00:22:37;47.10;44.11;52.24;;
47109;Laerm;32856;51.422;6.794;2022-10-31T00:25:05;47.28;42.82;51.50;;
47109;Laerm;32856;51.422;6.794;2022-10-31T00:27:32;47.53;43.49;53.05;;
47109;Laerm;32856;51.422;6.794;2022-10-31T00:30:00;47.06;42.59;51.60;;
47109;Laerm;32856;51.422;6.794;2022-10-31T00:32:30;46.00;41.46;49.55;;
47109;Laerm;32856;51.422;6.794;2022-10-31T00:34:58;46.01;40.89;51.56;;
47109;Laerm;32856;51.422;6.794;2022-10-31T00:37:26;45.74;41.96;50.82;;
47109;Laerm;32856;51.422;6.794;2022-10-31T00:39:55;51.54;43.99;66.74;;
47109;Laerm;32856;51.422;6.794;2022-10-31T00:42:22;48.38;42.03;58.81;;
47109;Laerm;32856;51.422;6.794;2022-10-31T00:44:50;47.46;42.29;53.43;;
47109;Laerm;32856;51.422;6.794;2022-10-31T00:47:17;47.49;41.68;51.40;;
47109;Laerm;32856;51.422;6.794;2022-10-31T00:49:45;46.63;42.98;50.80;;
47109;Laerm;32856;51.422;6.794;2022-10-31T00:52:12;52.59;42.59;71.54;;
47109;Laerm;32856;51.422;6.794;2022-10-31T00:54:40;48.03;42.88;52.27;;
47109;Laerm;32856;51.422;6.794;2022-10-31T00:57:08;47.15;42.29;52.22;;
47109;Laerm;32856;51.422;6.794;2022-10-31T00:59:36;46.68;40.53;52.96;;
47109;Laerm;32856;51.422;6.794;2022-10-31T01:02:03;47.04;43.54;50.75;;
47109;Laerm;32856;51.422;6.794;2022-10-31T01:04:31;46.42;41.89;53.90;;
47109;Laerm;32856;51.422;6.794;2022-10-31T01:06:58;48.36;43.94;54.19;;
47109;Laerm;32856;51.422;6.794;2022-10-31T01:09:26;53.80;46.18;71.13;;
47109;Laerm;32856;51.422;6.794;2022-10-31T01:11:53;49.21;45.33;53.88;;
47109;Laerm;32856;51.422;6.794;2022-10-31T01:14:22;50.32;45.30;56.07;;
47109;Laerm;32856;51.422;6.794;2022-10-31T01:16:50;49.17;43.49;54.18;;
47109;Laerm;32856;51.422;6.794;2022-10-31T01:19:17;52.14;44.54;70.01;;
47109;Laerm;32856;51.422;6.794;2022-10-31T01:21:45;49.85;44.35;65.11;;
47109;Laerm;32856;51.422;6.794;2022-10-31T01:24:13;47.49;41.30;66.61;;
47109;Laerm;32856;51.422;6.794;2022-10-31T01:26:40;48.62;44.65;52.92;;
47109;Laerm;32856;51.422;6.794;2022-10-31T01:29:11;51.13;43.29;68.63;;
47109;Laerm;32856;51.422;6.794;2022-10-31T01:31:39;47.79;43.29;53.53;;
47109;Laerm;32856;51.422;6.794;2022-10-31T01:34:08;48.41;43.14;53.84;;
47109;Laerm;32856;51.422;6.794;2022-10-31T01:36:39;48.75;42.29;54.83;;
47109;Laerm;32856;51.422;6.794;2022-10-31T01:39:07;48.10;42.59;54.87;;
47109;Laerm;32856;51.422;6.794;2022-10-31T01:41:36;45.79;40.23;54.29;;
47109;Laerm;32856;51.422;6.794;2022-10-31T01:46:49;48.50;43.24;52.92;;
47109;Laerm;32856;51.422;6.794;2022-10-31T01:49:18;49.45;42.88;54.64;;
47109;Laerm;32856;51.422;6.794;2022-10-31T01:51:48;52.02;41.22;71.73;;
47109;Laerm;32856;51.422;6.794;2022-10-31T01:54:18;54.52;46.28;62.16;;
47109;Laerm;32856;51.422;6.794;2022-10-31T01:56:48;54.96;43.54;73.44;;
47109;Laerm;32856;51.422;6.794;2022-10-31T01:59:17;48.88;43.54;58.37;;
47109;Laerm;32856;51.422;6.794;2022-10-31T02:01:46;49.02;44.47;54.82;;
47109;Laerm;32856;51.422;6.794;2022-10-31T02:04:16;48.94;43.99;55.58;;
47109;Laerm;32856;51.422;6.794;2022-10-31T02:06:45;47.77;43.72;52.15;;
47109;Laerm;32856;51.422;6.794;2022-10-31T02:09:14;47.50;43.81;52.40;;
47109;Laerm;32856;51.422;6.794;2022-10-31T02:11:42;52.39;44.76;71.28;;
47109;Laerm;32856;51.422;6.794;2022-10-31T02:14:11;47.73;42.71;58.88;;
47109;Laerm;32856;51.422;6.794;2022-10-31T02:16:39;47.46;42.88;51.08;;
47109;Laerm;32856;51.422;6.794;2022-10-31T02:19:06;46.51;43.72;50.36;;
47109;Laerm;32856;51.422;6.794;2022-10-31T02:21:37;54.82;42.65;74.94;;
47109;Laerm;32856;51.422;6.794;2022-10-31T02:24:16;46.15;42.41;50.77;;
47109;Laerm;32856;51.422;6.794;2022-10-31T02:26:53;48.01;44.39;53.21;;
47109;Laerm;32856;51.422;6.794;2022-10-31T02:32:13;47.32;43.39;51.24;;
47109;Laerm;32856;51.422;6.794;2022-10-31T02:34:44;47.23;42.41;55.19;;
47109;Laerm;32856;51.422;6.794;2022-10-31T02:37:19;49.98;44.31;57.44;;
47109;Laerm;32856;51.422;6.794;2022-10-31T02:39:52;47.92;45.11;53.39;;
47109;Laerm;32856;51.422;6.794;2022-10-31T02:42:24;48.38;44.27;53.83;;
47109;Laerm;32856;51.422;6.794;2022-10-31T02:44:55;49.33;43.34;58.81;;
47109;Laerm;32856;51.422;6.794;2022-10-31T02:47:26;54.75;44.54;71.84;;
47109;Laerm;32856;51.422;6.794;2022-10-31T02:49:55;51.08;46.45;56.89;;
47109;Laerm;32856;51.422;6.794;2022-10-31T02:52:25;53.45;45.01;71.01;;
47109;Laerm;32856;51.422;6.794;2022-10-31T02:54:54;49.82;44.07;55.60;;
47109;Laerm;32856;51.422;6.794;2022-10-31T02:57:32;50.18;44.83;54.60;;
47109;Laerm;32856;51.422;6.794;2022-10-31T03:00:03;49.41;45.33;56.39;;
47109;Laerm;32856;51.422;6.794;2022-10-31T03:02:45;48.97;44.90;52.60;;
47109;Laerm;32856;51.422;6.794;2022-10-31T03:05:18;48.71;44.73;53.47;;
47109;Laerm;32856;51.422;6.794;2022-10-31T03:07:55;50.41;45.75;57.69;;
47109;Laerm;32856;51.422;6.794;2022-10-31T03:10:27;54.01;46.73;71.18;;
47109;Laerm;32856;51.422;6.794;2022-10-31T03:12:59;54.53;47.55;71.63;;
47109;Laerm;32856;51.422;6.794;2022-10-31T03:15:30;59.30;45.91;78.80;;
47109;Laerm;32856;51.422;6.794;2022-10-31T03:18:11;52.75;48.46;56.26;;
47109;Laerm;32856;51.422;6.794;2022-10-31T03:20:41;53.12;49.19;56.97;;
47109;Laerm;32856;51.422;6.794;2022-10-31T03:23:12;53.06;48.21;58.25;;
47109;Laerm;32856;51.422;6.794;2022-10-31T03:25:41;57.53;49.36;72.98;;
47109;Laerm;32856;51.422;6.794;2022-10-31T03:28:09;52.01;47.36;56.08;;
47109;Laerm;32856;51.422;6.794;2022-10-31T03:30:38;57.41;50.92;76.16;;
47109;Laerm;32856;51.422;6.794;2022-10-31T03:33:11;54.25;47.96;68.98;;
47109;Laerm;32856;51.422;6.794;2022-10-31T03:35:41;53.83;50.50;57.66;;
47109;Laerm;32856;51.422;6.794;2022-10-31T03:38:09;53.07;48.87;60.95;;
47109;Laerm;32856;51.422;6.794;2022-10-31T03:40:42;55.45;48.84;72.54;;
47109;Laerm;32856;51.422;6.794;2022-10-31T03:43:12;53.61;47.18;68.82;;
47109;Laerm;32856;51.422;6.794;2022-10-31T03:45:41;56.28;47.90;72.78;;
47109;Laerm;32856;51.422;6.794;2022-10-31T03:48:12;57.92;49.72;74.15;;
47109;Laerm;32856;51.422;6.794;2022-10-31T03:50:42;51.92;47.88;55.49;;
47109;Laerm;32856;51.422;6.794;2022-10-31T03:53:13;52.00;47.70;55.55;;
47109;Laerm;32856;51.422;6.794;2022-10-31T03:55:42;54.22;48.51;71.73;;
47109;Laerm;32856;51.422;6.794;2022-10-31T03:58:17;52.71;48.66;66.54;;
47109;Laerm;32856;51.422;6.794;2022-10-31T04:00:46;52.16;47.74;65.42;;
47109;Laerm;32856;51.422;6.794;2022-10-31T04:03:20;56.04;48.58;73.60;;
47109;Laerm;32856;51.422;6.794;2022-10-31T04:05:49;55.08;48.71;70.76;;
47109;Laerm;32856;51.422;6.794;2022-10-31T04:08:20;58.01;48.87;74.74;;
47109;Laerm;32856;51.422;6.794;2022-10-31T04:10:49;56.73;49.47;71.40;;
47109;Laerm;32856;51.422;6.794;2022-10-31T04:13:19;57.97;48.83;74.96;;
47109;Laerm;32856;51.422;6.794;2022-10-31T04:15:51;55.02;49.53;69.77;;
47109;Laerm;32856;51.422;6.794;2022-10-31T04:18:21;60.53;50.11;76.64;;
47109;Laerm;32856;51.422;6.794;2022-10-31T04:20:49;54.08;50.64;57.21;;
47109;Laerm;32856;51.422;6.794;2022-10-31T04:23:17;58.32;50.52;75.05;;
47109;Laerm;32856;51.422;6.794;2022-10-31T04:25:46;53.66;50.31;60.17;;
47109;Laerm;32856;51.422;6.794;2022-10-31T04:28:13;59.70;50.56;79.22;;
47109;Laerm;32856;51.422;6.794;2022-10-31T04:30:41;54.28;50.77;57.47;;
47109;Laerm;32856;51.422;6.794;2022-10-31T04:33:09;56.40;50.47;73.87;;
47109;Laerm;32856;51.422;6.794;2022-10-31T04:35:38;56.94;51.56;73.52;;
47109;Laerm;32856;51.422;6.794;2022-10-31T04:38:05;57.29;50.65;73.79;;
47109;Laerm;32856;51.422;6.794;2022-10-31T04:40:33;61.21;51.50;76.42;;
47109;Laerm;32856;51.422;6.794;2022-10-31T04:43:00;60.42;50.70;74.56;;
47109;Laerm;32856;51.422;6.794;2022-10-31T04:45:28;60.27;51.33;73.96;;
47109;Laerm;32856;51.422;6.794;2022-10-31T04:47:56;56.92;51.43;70.46;;
47109;Laerm;32856;51.422;6.794;2022-10-31T04:50:23;56.50;51.91;72.82;;
47109;Laerm;32856;51.422;6.794;2022-10-31T04:52:52;58.30;52.20;73.31;;
47109;Laerm;32856;51.422;6.794;2022-10-31T04:55:20;58.77;51.07;72.69;;
47109;Laerm;32856;51.422;6.794;2022-10-31T04:57:48;56.73;51.77;72.46;;
47109;Laerm;32856;51.422;6.794;2022-10-31T05:00:17;57.83;51.17;72.00;;
47109;Laerm;32856;51.422;6.794;2022-10-31T05:02:45;56.53;51.06;73.13;;
47109;Laerm;32856;51.422;6.794;2022-10-31T05:05:13;56.70;52.10;69.82;;
47109;Laerm;32856;51.422;6.794;2022-10-31T05:07:48;59.02;51.86;73.53;;
47109;Laerm;32856;51.422;6.794;2022-10-31T05:10:17;56.79;52.26;70.83;;
47109;Laerm;32856;51.422;6.794;2022-10-31T05:12:45;56.54;51.59;70.70;;
47109;Laerm;32856;51.422;6.794;2022-10-31T05:15:14;60.01;51.78;76.39;;
47109;Laerm;32856;51.422;6.794;2022-10-31T05:17:44;62.01;51.30;79.02;;
47109;Laerm;32856;51.422;6.794;2022-10-31T05:20:12;58.00;52.14;72.61;;
47109;Laerm;32856;51.422;6.794;2022-10-31T05:22:41;59.24;51.69;74.95;;
47109;Laerm;32856;51.422;6.794;2022-10-31T05:25:09;60.06;51.77;75.74;;
47109;Laerm;32856;51.422;6.794;2022-10-31T05:27:39;60.09;52.45;77.33;;
47109;Laerm;32856;51.422;6.794;2022-10-31T05:30:07;60.53;52.62;73.13;;
47109;Laerm;32856;51.422;6.794;2022-10-31T05:32:38;60.52;52.84;76.71;;
47109;Laerm;32856;51.422;6.794;2022-10-31T05:35:06;58.37;52.13;71.69;;
47109;Laerm;32856;51.422;6.794;2022-10-31T05:37:35;58.81;52.24;72.35;;
47109;Laerm;32856;51.422;6.794;2022-10-31T05:40:03;61.04;52.06;77.65;;
47109;Laerm;32856;51.422;6.794;2022-10-31T05:42:32;61.65;52.38;78.64;;
47109;Laerm;32856;51.422;6.794;2022-10-31T05:45:02;57.57;52.98;69.60;;
47109;Laerm;32856;51.422;6.794;2022-10-31T05:47:30;59.72;52.81;73.73;;
47109;Laerm;32856;51.422;6.794;2022-10-31T05:49:57;69.07;54.31;81.79;;
47109;Laerm;32856;51.422;6.794;2022-10-31T05:52:25;63.93;53.57;81.83;;
47109;Laerm;32856;51.422;6.794;2022-10-31T05:54:52;64.45;53.86;79.49;;
47109;Laerm;32856;51.422;6.794;2022-10-31T05:57:20;60.93;52.96;71.38;;
47109;Laerm;32856;51.422;6.794;2022-10-31T05:59:47;59.95;53.39;70.87;;
47109;Laerm;32856;51.422;6.794;2022-10-31T06:02:21;63.39;52.85;78.34;;
47109;Laerm;32856;51.422;6.794;2022-10-31T06:04:49;60.38;53.35;73.84;;
47109;Laerm;32856;51.422;6.794;2022-10-31T06:07:16;63.09;53.47;80.38;;
47109;Laerm;32856;51.422;6.794;2022-10-31T06:09:44;63.93;54.10;89.62;;
47109;Laerm;32856;51.422;6.794;2022-10-31T06:12:11;61.97;52.99;73.97;;
47109;Laerm;32856;51.422;6.794;2022-10-31T06:14:39;61.01;53.21;72.92;;
47109;Laerm;32856;51.422;6.794;2022-10-31T06:17:06;62.31;52.33;77.53;;
47109;Laerm;32856;51.422;6.794;2022-10-31T06:19:35;64.55;54.38;77.39;;
47109;Laerm;32856;51.422;6.794;2022-10-31T06:22:02;72.19;55.47;80.82;;
47109;Laerm;32856;51.422;6.794;2022-10-31T06:24:30;72.96;66.23;81.29;;
47109;Laerm;32856;51.422;6.794;2022-10-31T06:26:58;72.20;66.11;78.93;;
47109;Laerm;32856;51.422;6.794;2022-10-31T06:29:26;72.23;65.24;80.55;;
47109;Laerm;32856;51.422;6.794;2022-10-31T06:31:53;72.09;65.37;78.40;;
47109;Laerm;32856;51.422;6.794;2022-10-31T06:34:21;71.21;64.71;76.89;;
47109;Laerm;32856;51.422;6.794;2022-10-31T06:36:50;71.52;65.09;81.94;;
47109;Laerm;32856;51.422;6.794;2022-10-31T06:39:17;72.03;65.53;78.00;;
47109;Laerm;32856;51.422;6.794;2022-10-31T06:41:46;73.10;66.53;78.91;;
47109;Laerm;32856;51.422;6.794;2022-10-31T06:44:14;72.79;65.80;78.22;;
47109;Laerm;32856;51.422;6.794;2022-10-31T06:46:41;71.41;64.31;78.25;;
47109;Laerm;32856;51.422;6.794;2022-10-31T06:49:09;69.17;52.55;80.48;;
47109;Laerm;32856;51.422;6.794;2022-10-31T06:51:36;62.55;52.92;74.08;;
47109;Laerm;32856;51.422;6.794;2022-10-31T06:54:05;69.11;52.80;86.11;;
47109;Laerm;32856;51.422;6.794;2022-10-31T06:56:33;71.96;54.28;80.34;;
47109;Laerm;32856;51.422;6.794;2022-10-31T06:59:00;72.16;63.25;81.31;;
47109;Laerm;32856;51.422;6.794;2022-10-31T07:01:28;72.82;64.21;79.40;;
47109;Laerm;32856;51.422;6.794;2022-10-31T07:03:55;67.73;53.82;80.94;;
47109;Laerm;32856;51.422;6.794;2022-10-31T07:06:23;69.33;59.50;77.51;;
47109;Laerm;32856;51.422;6.794;2022-10-31T07:08:50;73.39;66.16;79.16;;
47109;Laerm;32856;51.422;6.794;2022-10-31T07:11:19;73.96;66.23;78.31;;
47109;Laerm;32856;51.422;6.794;2022-10-31T07:13:46;72.84;58.03;77.10;;
47109;Laerm;32856;51.422;6.794;2022-10-31T07:16:14;72.32;54.18;78.31;;
47109;Laerm;32856;51.422;6.794;2022-10-31T07:18:53;73.01;56.34;85.62;;
47109;Laerm;32856;51.422;6.794;2022-10-31T07:21:21;62.69;52.51;73.72;;
47109;Laerm;32856;51.422;6.794;2022-10-31T07:23:48;64.83;53.46;76.14;;
47109;Laerm;32856;51.422;6.794;2022-10-31T07:26:16;64.63;53.65;78.05;;
47109;Laerm;32856;51.422;6.794;2022-10-31T07:28:45;71.12;65.56;77.93;;
47109;Laerm;32856;51.422;6.794;2022-10-31T07:31:12;71.32;65.48;78.03;;
47109;Laerm;32856;51.422;6.794;2022-10-31T07:33:40;70.75;65.08;77.33;;
47109;Laerm;32856;51.422;6.794;2022-10-31T07:36:07;69.97;64.97;74.62;;
47109;Laerm;32856;51.422;6.794;2022-10-31T07:38:35;69.25;64.89;74.62;;
47109;Laerm;32856;51.422;6.794;2022-10-31T07:41:02;71.59;64.72;84.28;;
47109;Laerm;32856;51.422;6.794;2022-10-31T07:43:30;71.35;64.50;79.31;;
47109;Laerm;32856;51.422;6.794;2022-10-31T07:45:59;71.29;65.09;79.84;;
47109;Laerm;32856;51.422;6.794;2022-10-31T07:48:26;71.07;64.14;78.59;;
47109;Laerm;32856;51.422;6.794;2022-10-31T07:50:54;70.26;64.81;76.25;;
47109;Laerm;32856;51.422;6.794;2022-10-31T07:53:21;65.76;51.48;80.70;;
47109;Laerm;32856;51.422;6.794;2022-10-31T07:55:49;62.74;49.91;81.90;;
47109;Laerm;32856;51.422;6.794;2022-10-31T07:58:17;60.68;50.38;76.60;;
47109;Laerm;32856;51.422;6.794;2022-10-31T08:00:45;64.46;51.59;80.60;;
47109;Laerm;32856;51.422;6.794;2022-10-31T08:03:15;66.23;52.60;78.61;;
47109;Laerm;32856;51.422;6.794;2022-10-31T08:05:42;63.70;52.11;73.32;;
47109;Laerm;32856;51.422;6.794;2022-10-31T08:08:12;70.20;54.74;79.85;;
47109;Laerm;32856;51.422;6.794;2022-10-31T08:10:39;72.51;64.02;81.30;;
47109;Laerm;32856;51.422;6.794;2022-10-31T08:13:08;68.18;52.00;79.20;;
47109;Laerm;32856;51.422;6.794;2022-10-31T08:15:36;61.62;52.11;73.94;;
47109;Laerm;32856;51.422;6.794;2022-10-31T08:18:06;60.18;52.03;73.52;;
47109;Laerm;32856;51.422;6.794;2022-10-31T08:20:35;63.39;52.53;74.39;;
47109;Laerm;32856;51.422;6.794;2022-10-31T08:23:03;66.97;51.62;78.49;;
47109;Laerm;32856;51.422;6.794;2022-10-31T08:25:31;71.51;66.02;82.25;;
47109;Laerm;32856;51.422;6.794;2022-10-31T08:28:02;70.62;65.43;77.70;;
47109;Laerm;32856;51.422;6.794;2022-10-31T08:30:31;71.03;64.17;84.79;;
47109;Laerm;32856;51.422;6.794;2022-10-31T08:32:59;66.01;52.84;75.70;;
47109;Laerm;32856;51.422;6.794;2022-10-31T08:35:26;72.14;61.51;89.03;;
47109;Laerm;32856;51.422;6.794;2022-10-31T08:37:56;71.94;64.94;78.08;;
47109;Laerm;32856;51.422;6.794;2022-10-31T08:40:24;70.29;54.52;78.43;;
47109;Laerm;32856;51.422;6.794;2022-10-31T08:42:55;70.97;64.32;79.11;;
47109;Laerm;32856;51.422;6.794;2022-10-31T08:45:23;71.13;65.19;78.67;;
47109;Laerm;32856;51.422;6.794;2022-10-31T08:47:50;71.59;64.78;85.20;;
47109;Laerm;32856;51.422;6.794;2022-10-31T08:50:18;69.44;56.98;80.98;;
47109;Laerm;32856;51.422;6.794;2022-10-31T08:52:46;70.68;63.72;81.16;;
47109;Laerm;32856;51.422;6.794;2022-10-31T08:55:32;71.07;65.10;80.08;;
47109;Laerm;32856;51.422;6.794;2022-10-31T08:58:02;69.52;64.87;74.74;;
47109;Laerm;32856;51.422;6.794;2022-10-31T09:00:30;69.18;53.75;78.07;;
47109;Laerm;32856;51.422;6.794;2022-10-31T09:02:58;67.54;53.39;78.92;;
47109;Laerm;32856;51.422;6.794;2022-10-31T09:05:26;61.81;53.91;73.43;;
47109;Laerm;32856;51.422;6.794;2022-10-31T09:07:55;62.99;54.54;72.67;;
47109;Laerm;32856;51.422;6.794;2022-10-31T09:10:23;62.71;54.16;76.84;;
47109;Laerm;32856;51.422;6.794;2022-10-31T09:12:55;61.70;53.80;71.99;;
47109;Laerm;32856;51.422;6.794;2022-10-31T09:15:23;62.64;53.72;72.15;;
47109;Laerm;32856;51.422;6.794;2022-10-31T09:17:50;63.98;55.42;74.72;;
47109;Laerm;32856;51.422;6.794;2022-10-31T09:20:18;61.64;51.89;71.69;;
47109;Laerm;32856;51.422;6.794;2022-10-31T09:22:46;64.77;52.02;76.54;;
47109;Laerm;32856;51.422;6.794;2022-10-31T09:25:13;65.10;54.17;78.36;;
47109;Laerm;32856;51.422;6.794;2022-10-31T09:27:41;61.22;54.06;72.39;;
47109;Laerm;32856;51.422;6.794;2022-10-31T09:30:10;62.69;53.26;76.22;;
47109;Laerm;32856;51.422;6.794;2022-10-31T09:32:48;62.14;51.09;76.69;;
47109;Laerm;32856;51.422;6.794;2022-10-31T09:35:21;63.78;53.08;86.48;;
47109;Laerm;32856;51.422;6.794;2022-10-31T09:37:53;60.19;54.51;72.31;;
47109;Laerm;32856;51.422;6.794;2022-10-31T09:40:21;63.03;51.59;74.27;;
47109;Laerm;32856;51.422;6.794;2022-10-31T09:42:54;61.97;51.97;76.03;;
47109;Laerm;32856;51.422;6.794;2022-10-31T09:45:33;63.20;53.07;76.44;;
47109;Laerm;32856;51.422;6.794;2022-10-31T09:48:09;63.28;53.13;74.53;;
47109;Laerm;32856;51.422;6.794;2022-10-31T09:50:39;60.26;52.48;74.68;;
47109;Laerm;32856;51.422;6.794;2022-10-31T09:53:09;68.18;53.68;81.36;;
47109;Laerm;32856;51.422;6.794;2022-10-31T09:55:38;66.59;53.14;83.25;;
47109;Laerm;32856;51.422;6.794;2022-10-31T09:58:08;63.38;52.98;80.16;;
47109;Laerm;32856;51.422;6.794;2022-10-31T10:00:37;66.68;54.22;78.18;;
47109;Laerm;32856;51.422;6.794;2022-10-31T10:03:06;71.42;63.89;77.94;;
47109;Laerm;32856;51.422;6.794;2022-10-31T10:05:51;72.06;64.93;78.73;;
47109;Laerm;32856;51.422;6.794;2022-10-31T10:08:29;71.89;64.38;78.67;;
47109;Laerm;32856;51.422;6.794;2022-10-31T10:10:59;70.98;63.75;81.33;;
47109;Laerm;32856;51.422;6.794;2022-10-31T10:13:36;68.83;52.49;77.76;;
47109;Laerm;32856;51.422;6.794;2022-10-31T10:16:12;61.04;53.41;71.12;;
47109;Laerm;32856;51.422;6.794;2022-10-31T10:18:44;65.15;52.15;76.41;;
47109;Laerm;32856;51.422;6.794;2022-10-31T10:21:22;71.24;63.56;77.76;;
47109;Laerm;32856;51.422;6.794;2022-10-31T10:24:11;71.03;64.12;78.37;;
47109;Laerm;32856;51.422;6.794;2022-10-31T10:26:40;70.09;63.65;82.73;;
47109;Laerm;32856;51.422;6.794;2022-10-31T10:29:16;69.35;57.23;76.06;;
47109;Laerm;32856;51.422;6.794;2022-10-31T10:31:46;60.15;52.77;72.62;;
47109;Laerm;32856;51.422;6.794;2022-10-31T10:34:17;71.06;54.58;81.44;;
47109;Laerm;32856;51.422;6.794;2022-10-31T10:36:47;70.49;63.11;84.85;;
47109;Laerm;32856;51.422;6.794;2022-10-31T10:39:18;68.52;54.81;77.91;;
47109;Laerm;32856;51.422;6.794;2022-10-31T10:41:48;62.26;53.83;72.18;;
47109;Laerm;32856;51.422;6.794;2022-10-31T10:44:30;63.66;52.20;76.18;;
47109;Laerm;32856;51.422;6.794;2022-10-31T10:47:16;64.12;51.63;77.52;;
47109;Laerm;32856;51.422;6.794;2022-10-31T10:50:02;71.10;62.95;82.06;;
47109;Laerm;32856;51.422;6.794;2022-10-31T10:52:44;72.69;62.66;79.87;;
47109;Laerm;32856;51.422;6.794;2022-10-31T10:55:16;70.88;64.13;78.16;;
47109;Laerm;32856;51.422;6.794;2022-10-31T10:57:53;69.86;64.59;79.03;;
47109;Laerm;32856;51.422;6.794;2022-10-31T11:00:22;70.07;64.67;75.21;;
47109;Laerm;32856;51.422;6.794;2022-10-31T11:02:55;70.76;65.02;78.42;;
47109;Laerm;32856;51.422;6.794;2022-10-31T11:05:24;70.34;64.80;76.22;;
47109;Laerm;32856;51.422;6.794;2022-10-31T11:07:53;70.26;63.77;79.10;;
47109;Laerm;32856;51.422;6.794;2022-10-31T11:10:20;70.40;63.90;78.78;;
47109;Laerm;32856;51.422;6.794;2022-10-31T11:12:58;69.64;64.54;77.47;;
47109;Laerm;32856;51.422;6.794;2022-10-31T11:15:26;69.02;64.00;73.55;;
47109;Laerm;32856;51.422;6.794;2022-10-31T11:17:56;69.63;63.85;78.40;;
47109;Laerm;32856;51.422;6.794;2022-10-31T11:20:29;69.42;64.30;77.12;;
47109;Laerm;32856;51.422;6.794;2022-10-31T11:23:05;69.82;63.23;82.68;;
47109;Laerm;32856;51.422;6.794;2022-10-31T11:25:33;68.29;61.93;76.25;;
47109;Laerm;32856;51.422;6.794;2022-10-31T11:28:01;68.66;62.03;76.65;;
47109;Laerm;32856;51.422;6.794;2022-10-31T11:30:28;69.90;63.14;77.75;;
47109;Laerm;32856;51.422;6.794;2022-10-31T11:32:58;70.05;63.23;79.64;;
47109;Laerm;32856;51.422;6.794;2022-10-31T11:35:26;70.06;63.85;84.68;;
47109;Laerm;32856;51.422;6.794;2022-10-31T11:38:03;70.99;63.99;80.40;;
47109;Laerm;32856;51.422;6.794;2022-10-31T11:40:31;70.20;63.28;78.33;;
47109;Laerm;32856;51.422;6.794;2022-10-31T11:42:59;66.41;52.03;76.87;;
47109;Laerm;32856;51.422;6.794;2022-10-31T11:45:28;62.31;53.04;75.92;;
47109;Laerm;32856;51.422;6.794;2022-10-31T11:47:58;64.30;54.40;79.78;;
47109;Laerm;32856;51.422;6.794;2022-10-31T11:50:30;61.17;54.48;71.42;;
47109;Laerm;32856;51.422;6.794;2022-10-31T11:52:59;62.87;55.61;75.58;;
47109;Laerm;32856;51.422;6.794;2022-10-31T11:55:31;63.75;54.72;83.17;;
47109;Laerm;32856;51.422;6.794;2022-10-31T11:58:00;62.64;54.79;72.03;;
47109;Laerm;32856;51.422;6.794;2022-10-31T12:00:28;62.45;54.50;81.78;;
47109;Laerm;32856;51.422;6.794;2022-10-31T12:03:12;61.65;51.27;72.88;;
47109;Laerm;32856;51.422;6.794;2022-10-31T12:05:41;60.06;51.13;74.98;;
47109;Laerm;32856;51.422;6.794;2022-10-31T12:08:11;65.84;53.03;88.69;;
47109;Laerm;32856;51.422;6.794;2022-10-31T12:10:41;65.40;54.19;82.99;;
47109;Laerm;32856;51.422;6.794;2022-10-31T12:13:26;72.92;57.25;97.25;;
47109;Laerm;32856;51.422;6.794;2022-10-31T12:16:02;70.94;57.46;91.44;;
47109;Laerm;32856;51.422;6.794;2022-10-31T12:18:37;68.29;54.75;87.76;;
47109;Laerm;32856;51.422;6.794;2022-10-31T12:21:12;66.61;54.12;92.27;;
47109;Laerm;32856;51.422;6.794;2022-10-31T12:23:45;64.52;53.00;81.06;;
47109;Laerm;32856;51.422;6.794;2022-10-31T12:26:17;63.34;52.62;80.47;;
47109;Laerm;32856;51.422;6.794;2022-10-31T12:31:32;65.04;52.17;75.24;;
47109;Laerm;32856;51.422;6.794;2022-10-31T12:34:11;64.72;52.21;77.21;;
47109;Laerm;32856;51.422;6.794;2022-10-31T12:36:45;62.13;53.96;78.17;;
47109;Laerm;32856;51.422;6.794;2022-10-31T12:39:22;69.05;61.65;81.16;;
47109;Laerm;32856;51.422;6.794;2022-10-31T12:41:51;71.15;62.51;80.35;;
47109;Laerm;32856;51.422;6.794;2022-10-31T12:44:30;71.04;63.66;90.04;;
47109;Laerm;32856;51.422;6.794;2022-10-31T12:47:05;70.18;62.13;79.63;;
47109;Laerm;32856;51.422;6.794;2022-10-31T12:49:41;71.03;63.16;78.99;;
47109;Laerm;32856;51.422;6.794;2022-10-31T12:52:18;67.17;52.94;75.88;;
47109;Laerm;32856;51.422;6.794;2022-10-31T12:54:55;72.02;63.18;83.37;;
47109;Laerm;32856;51.422;6.794;2022-10-31T12:57:27;71.99;62.92;86.49;;
47109;Laerm;32856;51.422;6.794;2022-10-31T12:59:57;74.04;64.02;96.93;;
47109;Laerm;32856;51.422;6.794;2022-10-31T13:02:29;73.24;57.90;87.31;;
47109;Laerm;32856;51.422;6.794;2022-10-31T13:05:01;65.65;57.63;79.25;;
47109;Laerm;32856;51.422;6.794;2022-10-31T13:07:30;64.30;56.67;76.29;;
47109;Laerm;32856;51.422;6.794;2022-10-31T13:10:00;63.88;56.23;82.30;;
47109;Laerm;32856;51.422;6.794;2022-10-31T13:12:32;71.00;60.54;84.75;;
47109;Laerm;32856;51.422;6.794;2022-10-31T13:15:03;70.34;56.50;80.33;;
47109;Laerm;32856;51.422;6.794;2022-10-31T13:17:33;69.26;57.00;84.89;;
47109;Laerm;32856;51.422;6.794;2022-10-31T13:20:23;62.62;56.68;78.02;;
47109;Laerm;32856;51.422;6.794;2022-10-31T13:22:55;66.12;56.43;77.90;;
47109;Laerm;32856;51.422;6.794;2022-10-31T13:25:24;72.97;58.05;80.23;;
47109;Laerm;32856;51.422;6.794;2022-10-31T13:27:54;71.53;63.59;84.88;;
47109;Laerm;32856;51.422;6.794;2022-10-31T13:30:22;64.50;54.75;77.77;;
47109;Laerm;32856;51.422;6.794;2022-10-31T13:32:51;64.24;53.90;78.99;;
47109;Laerm;32856;51.422;6.794;2022-10-31T13:35:25;65.15;53.43;78.17;;
47109;Laerm;32856;51.422;6.794;2022-10-31T13:38:00;65.60;52.89;82.99;;
47109;Laerm;32856;51.422;6.794;2022-10-31T13:40:34;68.88;54.58;92.18;;
47109;Laerm;32856;51.422;6.794;2022-10-31T13:43:04;63.60;55.75;76.76;;
47109;Laerm;32856;51.422;6.794;2022-10-31T13:45:33;65.17;58.10;80.67;;
47109;Laerm;32856;51.422;6.794;2022-10-31T13:48:01;65.91;56.04;81.47;;
47109;Laerm;32856;51.422;6.794;2022-10-31T13:50:56;63.90;54.25;88.36;;
47109;Laerm;32856;51.422;6.794;2022-10-31T13:53:35;63.61;55.60;74.92;;
47109;Laerm;32856;51.422;6.794;2022-10-31T13:56:03;64.22;55.43;76.47;;
47109;Laerm;32856;51.422;6.794;2022-10-31T13:58:32;61.78;54.66;71.86;;
47109;Laerm;32856;51.422;6.794;2022-10-31T14:01:03;64.75;54.43;78.69;;
47109;Laerm;32856;51.422;6.794;2022-10-31T14:03:33;63.96;55.05;80.18;;
47109;Laerm;32856;51.422;6.794;2022-10-31T14:06:24;63.00;54.55;74.01;;
47109;Laerm;32856;51.422;6.794;2022-10-31T14:09:02;64.20;53.35;87.09;;